createdAt,value
2018-09-26T00:00:36.178Z,96520.56
2018-09-26T00:03:02.942Z,96523.11
2018-09-26T00:05:29.564Z,96517.14
2018-09-26T00:07:56.228Z,96512.19
2018-09-26T00:10:22.904Z,96513.57
2018-09-26T00:12:49.687Z,96512.69
2018-09-26T00:15:16.457Z,96509.13
2018-09-26T00:17:43.077Z,96519.81
2018-09-26T00:20:09.791Z,96512.55
2018-09-26T00:22:36.456Z,96524.39
2018-09-26T00:25:03.207Z,96521.08
2018-09-26T00:27:29.872Z,96529.70
2018-09-26T00:29:56.583Z,96529.59
2018-09-26T00:32:23.950Z,96532.24
2018-09-26T00:34:50.620Z,96531.25
2018-09-26T00:37:17.357Z,96527.80
2018-09-26T00:39:44.123Z,96533.53
2018-09-26T00:42:10.792Z,96529.33
2018-09-26T00:44:37.438Z,96528.05
2018-09-26T00:47:04.529Z,96525.65
2018-09-26T00:49:31.185Z,96526.55
2018-09-26T00:51:57.840Z,96528.83
2018-09-26T00:54:25.548Z,96530.61
2018-09-26T00:56:51.182Z,96529.47
2018-09-26T00:59:17.838Z,96532.02
2018-09-26T01:01:44.531Z,96530.73
2018-09-26T01:04:11.192Z,96534.53
2018-09-26T01:06:37.854Z,96533.65
2018-09-26T01:09:04.569Z,96527.55
2018-09-26T01:11:31.220Z,96526.93
2018-09-26T01:13:57.928Z,96526.80
2018-09-26T01:16:24.580Z,96528.20
2018-09-26T01:18:51.253Z,96527.56
2018-09-26T01:21:17.939Z,96527.55
2018-09-26T01:23:44.601Z,96531.51
2018-09-26T01:26:11.398Z,96538.74
2018-09-26T01:28:38.067Z,96536.34
2018-09-26T01:31:04.716Z,96534.42
2018-09-26T01:33:31.406Z,96535.57
2018-09-26T01:35:58.075Z,96536.31
2018-09-26T01:38:24.729Z,96537.07
2018-09-26T01:40:52.718Z,96532.39
2018-09-26T01:43:18.045Z,96530.09
2018-09-26T01:45:44.695Z,96530.61
2018-09-26T01:48:11.480Z,96533.41
2018-09-26T01:50:39.289Z,96529.22
2018-09-26T01:53:04.864Z,96533.41
2018-09-26T01:55:31.552Z,96538.98
2018-09-26T01:57:58.344Z,96535.17
2018-09-26T02:00:25.018Z,96532.39
2018-09-26T02:02:51.702Z,96530.59
2018-09-26T02:05:18.455Z,96531.23
2018-09-26T02:07:45.114Z,96534.67
2018-09-26T02:10:11.780Z,96535.70
2018-09-26T02:12:38.508Z,96535.45
2018-09-26T02:15:05.209Z,96534.69
2018-09-26T02:17:31.983Z,96538.73
2018-09-26T02:19:58.657Z,96531.62
2018-09-26T02:22:25.361Z,96531.24
2018-09-26T02:24:52.142Z,96535.43
2018-09-26T02:27:18.901Z,96526.42
2018-09-26T02:29:45.581Z,96532.15
2018-09-26T02:32:13.506Z,96534.03
2018-09-26T02:34:39.029Z,96530.62
2018-09-26T02:37:05.778Z,96529.47
2018-09-26T02:39:32.515Z,96527.69
2018-09-26T02:41:59.203Z,96522.63
2018-09-26T02:44:25.865Z,96526.16
2018-09-26T02:46:52.572Z,96525.67
2018-09-26T02:49:19.243Z,96540.02
2018-09-26T02:51:45.904Z,96529.72
2018-09-26T02:54:12.644Z,96532.66
2018-09-26T02:56:39.360Z,96533.52
2018-09-26T02:59:06.065Z,96534.05
2018-09-26T03:01:32.718Z,96534.05
2018-09-26T03:03:59.433Z,96529.84
2018-09-26T03:06:26.143Z,96537.72
2018-09-26T03:08:52.826Z,96535.51
2018-09-26T03:11:19.541Z,96533.17
2018-09-26T03:13:46.211Z,96527.42
2018-09-26T03:16:14.101Z,96525.90
2018-09-26T03:18:39.592Z,96533.33
2018-09-26T03:21:07.603Z,96527.02
2018-09-26T03:23:32.919Z,96531.42
2018-09-26T03:25:59.619Z,96531.91
2018-09-26T03:28:28.499Z,96535.45
2018-09-26T03:30:52.994Z,96540.78
2018-09-26T03:33:19.701Z,96543.27
2018-09-26T03:35:46.468Z,96531.67
2018-09-26T03:38:13.120Z,96534.03
2018-09-26T03:40:39.757Z,96538.33
2018-09-26T03:43:11.753Z,96536.97
2018-09-26T03:45:36.271Z,96540.77
2018-09-26T03:48:02.912Z,96536.23
2018-09-26T03:50:29.633Z,96534.98
2018-09-26T03:52:57.769Z,96536.27
2018-09-26T03:55:23.112Z,96535.63
2018-09-26T03:57:49.786Z,96537.14
2018-09-26T04:00:17.727Z,96535.91
2018-09-26T04:02:43.097Z,96540.22
2018-09-26T04:05:09.781Z,96546.86
2018-09-26T04:07:36.469Z,96544.18
2018-09-26T04:10:03.116Z,96542.77
2018-09-26T04:12:29.863Z,96550.13
2018-09-26T04:14:56.596Z,96555.95
2018-09-26T04:17:23.247Z,96557.75
2018-09-26T04:19:49.964Z,96552.45
2018-09-26T04:22:16.646Z,96564.08
2018-09-26T04:24:43.295Z,96569.93
2018-09-26T04:27:10.013Z,96576.01
2018-09-26T04:29:36.569Z,96580.28
2018-09-26T04:32:03.235Z,96585.83
2018-09-26T04:34:29.869Z,96584.54
2018-09-26T04:36:57.835Z,96590.88
2018-09-26T04:39:23.199Z,96596.64
2018-09-26T04:41:51.815Z,96588.78
2018-09-26T04:44:18.500Z,96587.83
2018-09-26T04:46:45.194Z,96590.91
2018-09-26T04:49:12.665Z,96591.92
2018-09-26T04:51:42.356Z,96597.02
2018-09-26T04:54:09.154Z,96601.84
2018-09-26T04:56:35.856Z,96601.44
2018-09-26T04:59:02.552Z,96603.11
2018-09-26T05:01:29.228Z,96606.29
2018-09-26T05:03:55.826Z,96606.78
2018-09-26T05:06:22.562Z,96604.99
2018-09-26T05:08:49.262Z,96614.17
2018-09-26T05:11:15.893Z,96619.13
2018-09-26T05:13:42.575Z,96612.12
2018-09-26T05:16:09.361Z,96620.89
2018-09-26T05:18:35.996Z,96625.72
2018-09-26T05:21:04.643Z,96623.92
2018-09-26T05:23:29.331Z,96622.52
2018-09-26T05:25:56.012Z,96622.48
2018-09-26T05:28:22.653Z,96622.86
2018-09-26T05:30:49.297Z,96621.84
2018-09-26T05:33:16.506Z,96622.34
2018-09-26T05:35:43.118Z,96627.67
2018-09-26T05:38:09.820Z,96630.84
2018-09-26T05:40:39.741Z,96633.91
2018-09-26T05:43:06.379Z,96635.44
2018-09-26T05:45:33.134Z,96634.77
2018-09-26T05:47:59.905Z,96643.27
2018-09-26T05:50:26.595Z,96644.94
2018-09-26T05:52:53.314Z,96642.13
2018-09-26T05:55:20.031Z,96652.09
2018-09-26T05:57:46.672Z,96653.91
2018-09-26T06:00:13.540Z,96653.02
2018-09-26T06:02:40.253Z,96653.70
2018-09-26T06:05:07.351Z,96657.59
2018-09-26T06:07:34.074Z,96656.19
2018-09-26T06:10:00.767Z,96660.85
2018-09-26T06:12:27.602Z,96663.27
2018-09-26T06:14:55.546Z,96664.89
2018-09-26T06:17:22.203Z,96668.89
2018-09-26T06:19:48.878Z,96668.22
2018-09-26T06:22:15.559Z,96674.22
2018-09-26T06:24:42.272Z,96664.13
2018-09-26T06:27:08.909Z,96666.80
2018-09-26T06:29:35.521Z,96669.94
2018-09-26T06:32:03.281Z,96664.97
2018-09-26T06:34:28.897Z,96676.80
2018-09-26T06:36:55.499Z,96678.97
2018-09-26T06:39:23.446Z,96670.11
2018-09-26T06:41:48.928Z,96671.53
2018-09-26T06:44:15.596Z,96670.27
2018-09-26T06:46:42.334Z,96669.23
2018-09-26T06:49:10.362Z,96672.44
2018-09-26T06:51:35.669Z,96677.41
2018-09-26T06:54:02.435Z,96687.17
2018-09-26T06:56:29.026Z,96688.59
2018-09-26T06:58:55.722Z,96684.14
2018-09-26T07:01:22.391Z,96688.58
2018-09-26T07:03:49.117Z,96690.50
2018-09-26T07:06:20.986Z,96688.36
2018-09-26T07:08:47.724Z,96687.09
2018-09-26T07:11:14.365Z,96690.14
2018-09-26T07:13:41.124Z,96696.50
2018-09-26T07:16:07.720Z,96693.95
2018-09-26T07:18:34.401Z,96690.02
2018-09-26T07:21:04.382Z,96685.17
2018-09-26T07:23:34.210Z,96681.23
2018-09-26T07:26:00.898Z,96682.14
2018-09-26T07:28:27.576Z,96678.69
2018-09-26T07:30:54.220Z,96682.61
2018-09-26T07:33:20.868Z,96674.48
2018-09-26T07:35:47.525Z,96676.52
2018-09-26T07:38:14.244Z,96680.43
2018-09-26T07:40:41.014Z,96678.54
2018-09-26T07:43:10.716Z,96679.42
2018-09-26T07:45:37.499Z,96681.06
2018-09-26T07:48:06.099Z,96682.59
2018-09-26T07:50:30.674Z,96671.54
2018-09-26T07:52:58.762Z,96676.36
2018-09-26T07:55:24.015Z,96674.20
2018-09-26T07:57:50.750Z,96673.70
2018-09-26T08:00:17.485Z,96679.05
2018-09-26T08:02:44.136Z,96675.34
2018-09-26T08:05:10.784Z,96676.23
2018-09-26T08:07:37.522Z,96674.20
2018-09-26T08:10:04.182Z,96675.08
2018-09-26T08:12:34.100Z,96671.66
2018-09-26T08:15:00.714Z,96676.47
2018-09-26T08:17:27.474Z,96671.03
2018-09-26T08:19:54.070Z,96670.65
2018-09-26T08:22:20.711Z,96673.69
2018-09-26T08:24:47.419Z,96672.17
2018-09-26T08:27:14.104Z,96670.27
2018-09-26T08:29:40.826Z,96669.87
2018-09-26T08:32:08.788Z,96667.97
2018-09-26T08:34:34.060Z,96681.93
2018-09-26T08:37:00.788Z,96684.86
2018-09-26T08:39:27.389Z,96670.64
2018-09-26T08:41:54.177Z,96671.91
2018-09-26T08:44:20.817Z,96673.80
2018-09-26T08:46:47.465Z,96672.02
2018-09-26T08:49:14.115Z,96673.14
2018-09-26T08:51:40.754Z,96676.61
2018-09-26T08:54:08.792Z,96670.27
2018-09-26T08:56:34.133Z,96666.44
2018-09-26T08:59:00.878Z,96666.30
2018-09-26T09:01:28.966Z,96671.25
2018-09-26T09:03:54.368Z,96666.95
2018-09-26T09:06:21.072Z,96671.27
2018-09-26T09:08:47.693Z,96669.23
2018-09-26T09:11:15.599Z,96676.45
2018-09-26T09:13:40.948Z,96664.77
2018-09-26T09:16:10.566Z,96660.05
2018-09-26T09:18:37.227Z,96655.76
2018-09-26T09:21:03.852Z,96661.70
2018-09-26T09:23:30.518Z,96664.38
2018-09-26T09:25:57.223Z,96668.70
2018-09-26T09:28:23.832Z,96667.66
2018-09-26T09:30:50.561Z,96664.59
2018-09-26T09:33:17.208Z,96658.27
2018-09-26T09:35:43.839Z,96672.48
2018-09-26T09:38:10.577Z,96676.22
2018-09-26T09:40:37.261Z,96670.91
2018-09-26T09:43:04.008Z,96666.97
2018-09-26T09:45:30.708Z,96673.25
2018-09-26T09:47:58.718Z,96665.78
2018-09-26T09:50:24.059Z,96663.48
2018-09-26T09:52:50.737Z,96661.48
2018-09-26T09:55:17.335Z,96649.81
2018-09-26T09:57:43.970Z,96652.87
2018-09-26T10:00:10.646Z,96647.30
2018-09-26T10:02:37.376Z,96664.31
2018-09-26T10:05:03.970Z,96650.71
2018-09-26T10:07:30.629Z,96662.06
2018-09-26T10:09:57.287Z,96660.51
2018-09-26T10:12:23.992Z,96659.90
2018-09-26T10:14:50.604Z,96658.36
2018-09-26T10:17:17.245Z,96657.63
2018-09-26T10:19:43.896Z,96655.83
2018-09-26T10:22:10.566Z,96661.79
2018-09-26T10:24:37.228Z,96670.67
2018-09-26T10:27:03.909Z,96663.45
2018-09-26T10:29:30.545Z,96658.36
2018-09-26T10:31:57.205Z,96655.32
2018-09-26T10:34:23.942Z,96649.08
2018-09-26T10:36:50.618Z,96651.22
2018-09-26T10:39:17.284Z,96655.17
2018-09-26T10:41:45.178Z,96655.55
2018-09-26T10:44:10.623Z,96656.70
2018-09-26T10:46:37.365Z,96657.81
2018-09-26T10:49:04.028Z,96645.63
2018-09-26T10:51:34.035Z,96653.13
2018-09-26T10:54:03.602Z,96640.89
2018-09-26T10:56:30.459Z,96637.22
2018-09-26T10:58:56.986Z,96640.53
2018-09-26T11:01:23.716Z,96643.95
2018-09-26T11:03:50.403Z,96634.92
2018-09-26T11:06:17.051Z,96646.75
2018-09-26T11:08:43.778Z,96644.55
2018-09-26T11:11:12.756Z,96635.94
2018-09-26T11:13:37.175Z,96630.22
2018-09-26T11:16:04.549Z,96636.94
2018-09-26T11:18:31.566Z,96623.47
2018-09-26T11:20:58.303Z,96628.68
2018-09-26T11:23:24.942Z,96630.33
2018-09-26T11:25:51.668Z,96620.94
2018-09-26T11:28:18.370Z,96625.14
2018-09-26T11:30:44.986Z,96625.47
2018-09-26T11:33:14.830Z,96626.00
2018-09-26T11:35:40.056Z,96618.11
2018-09-26T11:38:05.402Z,96619.39
2018-09-26T11:40:32.127Z,96614.68
2018-09-26T11:42:58.933Z,96613.41
2018-09-26T11:45:25.653Z,96611.00
2018-09-26T11:47:52.535Z,96604.27
2018-09-26T11:50:19.528Z,96595.50
2018-09-26T11:52:46.328Z,96603.22
2018-09-26T11:55:16.110Z,96605.75
2018-09-26T11:57:42.742Z,96595.21
2018-09-26T12:00:09.385Z,96596.88
2018-09-26T12:02:36.065Z,96597.02
2018-09-26T12:05:02.767Z,96594.36
2018-09-26T12:07:29.578Z,96587.06
2018-09-26T12:09:56.178Z,96583.38
2018-09-26T12:12:23.013Z,96590.50
2018-09-26T12:14:49.574Z,96587.98
2018-09-26T12:17:19.206Z,96575.88
2018-09-26T12:19:45.912Z,96581.85
2018-09-26T12:22:12.612Z,96578.53
2018-09-26T12:24:39.226Z,96571.56
2018-09-26T12:27:08.089Z,96574.86
2018-09-26T12:29:32.667Z,96570.31
2018-09-26T12:31:59.349Z,96566.38
2018-09-26T12:34:26.042Z,96571.17
2018-09-26T12:36:53.024Z,96567.64
2018-09-26T12:39:20.435Z,96574.16
2018-09-26T12:41:47.165Z,96566.59
2018-09-26T12:44:14.123Z,96565.11
2018-09-26T12:46:40.775Z,96567.73
2018-09-26T12:49:09.619Z,96571.56
2018-09-26T12:51:34.127Z,96571.54
2018-09-26T12:54:00.827Z,96567.70
2018-09-26T12:56:27.512Z,96570.03
2018-09-26T12:58:54.158Z,96569.88
2018-09-26T13:01:20.970Z,96567.08
2018-09-26T13:03:47.620Z,96577.31
2018-09-26T13:06:18.430Z,96579.33
2018-09-26T13:08:44.094Z,96569.27
2018-09-26T13:11:10.735Z,96569.15
2018-09-26T13:13:37.388Z,96571.81
2018-09-26T13:16:04.076Z,96567.23
2018-09-26T13:18:30.686Z,96569.64
2018-09-26T13:20:57.379Z,96563.78
2018-09-26T13:23:24.057Z,96558.07
2018-09-26T13:25:50.720Z,96557.05
2018-09-26T13:28:20.598Z,96559.11
2018-09-26T13:30:47.409Z,96557.08
2018-09-26T13:33:14.384Z,96553.63
2018-09-26T13:35:41.230Z,96555.64
2018-09-26T13:38:07.943Z,96556.56
2018-09-26T13:40:34.717Z,96556.95
2018-09-26T13:43:01.462Z,96559.98
2018-09-26T13:45:28.168Z,96554.88
2018-09-26T13:47:54.833Z,96551.06
2018-09-26T13:50:21.542Z,96552.91
2018-09-26T13:52:49.523Z,96550.36
2018-09-26T13:55:14.954Z,96541.73
2018-09-26T13:57:41.717Z,96541.61
2018-09-26T14:00:08.467Z,96540.06
2018-09-26T14:02:35.185Z,96541.48
2018-09-26T14:05:01.923Z,96543.00
2018-09-26T14:07:28.581Z,96550.34
2018-09-26T14:09:56.652Z,96543.00
2018-09-26T14:12:21.999Z,96547.05
2018-09-26T14:17:15.280Z,96543.39
2018-09-26T14:19:42.048Z,96541.88
2018-09-26T14:22:08.746Z,96546.59
2018-09-26T14:24:35.436Z,96546.73
2018-09-26T14:27:02.141Z,96542.30
2018-09-26T14:29:32.077Z,96544.23
2018-09-26T14:31:58.739Z,96547.29
2018-09-26T14:34:26.737Z,96538.92
2018-09-26T14:36:52.260Z,96544.11
2018-09-26T14:39:18.993Z,96544.75
2018-09-26T14:41:45.578Z,96544.36
2018-09-26T14:44:12.257Z,96543.86
2018-09-26T14:46:39.857Z,96551.97
2018-09-26T14:49:06.489Z,96550.36
2018-09-26T14:51:33.188Z,96551.51
2018-09-26T14:54:01.021Z,96551.51
2018-09-26T14:56:26.492Z,96557.22
2018-09-26T14:58:53.102Z,96559.89
2018-09-26T15:01:19.732Z,96562.44
2018-09-26T15:03:47.307Z,96570.20
2018-09-26T15:06:13.952Z,96570.54
2018-09-26T15:08:40.588Z,96569.05
2018-09-26T15:11:07.189Z,96568.27
2018-09-26T15:13:33.873Z,96570.72
2018-09-26T15:16:00.510Z,96574.03
2018-09-26T15:18:27.164Z,96578.58
2018-09-26T15:20:56.338Z,96580.62
2018-09-26T15:23:23.041Z,96569.45
2018-09-26T15:25:49.683Z,96573.90
2018-09-26T15:28:16.509Z,96570.46
2018-09-26T15:30:43.049Z,96578.09
2018-09-26T15:33:09.654Z,96580.63
2018-09-26T15:35:36.305Z,96569.97
2018-09-26T15:38:03.045Z,96569.56
2018-09-26T15:40:29.728Z,96578.60
2018-09-26T15:42:56.337Z,96572.88
2018-09-26T15:45:22.985Z,96573.64
2018-09-26T15:47:49.688Z,96582.27
2018-09-26T15:50:16.413Z,96584.30
2018-09-26T15:52:43.047Z,96589.27
2018-09-26T15:55:09.779Z,96588.75
2018-09-26T15:57:36.429Z,96585.71
2018-09-26T16:00:03.090Z,96584.68
2018-09-26T16:02:29.769Z,96586.60
2018-09-26T16:04:57.016Z,96598.28
2018-09-26T16:07:23.718Z,96593.58
2018-09-26T16:09:50.360Z,96601.72
2018-09-26T16:12:17.080Z,96594.98
2018-09-26T16:14:43.689Z,96603.86
2018-09-26T16:17:10.318Z,96611.34
2018-09-26T16:19:37.007Z,96611.23
2018-09-26T16:22:03.645Z,96617.94
2018-09-26T16:24:30.294Z,96622.66
2018-09-26T16:26:59.977Z,96620.24
2018-09-26T16:29:29.816Z,96616.80
2018-09-26T16:31:56.498Z,96616.17
2018-09-26T16:34:23.180Z,96621.75
2018-09-26T16:36:51.670Z,96621.09
2018-09-26T16:39:16.532Z,96621.38
2018-09-26T16:41:43.199Z,96625.29
2018-09-26T16:44:09.938Z,96624.14
2018-09-26T16:46:38.113Z,96628.47
2018-09-26T16:49:03.213Z,96634.68
2018-09-26T16:51:29.858Z,96643.58
2018-09-26T16:53:56.603Z,96643.30
2018-09-26T16:56:24.736Z,96647.25
2018-09-26T16:58:49.922Z,96650.91
2018-09-26T17:01:16.560Z,96646.48
2018-09-26T17:03:43.198Z,96646.09
2018-09-26T17:06:12.729Z,96655.87
2018-09-26T17:08:37.141Z,96655.87
2018-09-26T17:11:03.831Z,96654.61
2018-09-26T17:13:30.476Z,96658.66
2018-09-26T17:15:58.495Z,96660.55
2018-09-26T17:18:23.858Z,96659.53
2018-09-26T17:20:50.473Z,96667.28
2018-09-26T17:23:17.121Z,96664.48
2018-09-26T17:25:43.767Z,96651.79
2018-09-26T17:28:10.464Z,96653.81
2018-09-26T17:30:37.187Z,96655.20
2018-09-26T17:33:03.922Z,96651.38
2018-09-26T17:35:30.602Z,96656.58
2018-09-26T17:37:57.238Z,96659.75
2018-09-26T17:40:23.939Z,96661.11
2018-09-26T17:42:50.757Z,96660.38
2018-09-26T17:45:19.562Z,96669.87
2018-09-26T17:47:44.094Z,96673.67
2018-09-26T17:50:10.727Z,96681.41
2018-09-26T17:52:38.138Z,96669.48
2018-09-26T17:55:04.791Z,96668.85
2018-09-26T17:57:31.496Z,96662.16
2018-09-26T17:59:58.204Z,96676.98
2018-09-26T18:02:24.838Z,96673.42
2018-09-26T18:04:51.512Z,96686.75
2018-09-26T18:07:21.001Z,96688.11
2018-09-26T18:09:47.679Z,96687.48
2018-09-26T18:12:14.362Z,96683.19
2018-09-26T18:14:41.135Z,96688.73
2018-09-26T18:17:07.798Z,96686.95
2018-09-26T18:19:34.490Z,96689.49
2018-09-26T18:22:01.173Z,96680.50
2018-09-26T18:24:27.853Z,96684.55
2018-09-26T18:26:54.562Z,96682.23
2018-09-26T18:29:21.249Z,96671.45
2018-09-26T18:31:47.953Z,96659.91
2018-09-26T18:34:14.647Z,96661.83
2018-09-26T18:36:41.286Z,96665.73
2018-09-26T18:39:08.083Z,96656.09
2018-09-26T18:41:34.792Z,96668.52
2018-09-26T18:44:01.480Z,96665.20
2018-09-26T18:46:28.108Z,96662.69
2018-09-26T18:48:54.756Z,96666.61
2018-09-26T18:51:21.389Z,96664.58
2018-09-26T18:53:48.078Z,96660.48
2018-09-26T18:56:17.685Z,96657.69
2018-09-26T18:58:44.371Z,96660.34
2018-09-26T19:01:11.008Z,96658.45
2018-09-26T19:03:37.731Z,96670.72
2018-09-26T19:06:07.537Z,96675.29
2018-09-26T19:08:34.176Z,96680.00
2018-09-26T19:11:00.909Z,96673.89
2018-09-26T19:13:27.584Z,96677.16
2018-09-26T19:15:54.270Z,96679.84
2018-09-26T19:18:23.979Z,96673.98
2018-09-26T19:20:50.709Z,96684.27
2018-09-26T19:23:17.387Z,96680.81
2018-09-26T19:25:44.037Z,96670.66
2018-09-26T19:28:10.677Z,96676.52
2018-09-26T19:30:40.316Z,96685.50
2018-09-26T19:33:10.040Z,96682.19
2018-09-26T19:35:36.641Z,96682.33
2018-09-26T19:38:03.321Z,96682.67
2018-09-26T19:40:30.002Z,96675.83
2018-09-26T19:42:56.606Z,96683.14
2018-09-26T19:45:23.271Z,96684.50
2018-09-26T19:47:49.953Z,96683.25
2018-09-26T19:50:16.592Z,96684.88
2018-09-26T19:52:44.613Z,96685.89
2018-09-26T19:55:09.991Z,96682.47
2018-09-26T19:57:36.765Z,96678.91
2018-09-26T20:00:03.491Z,96685.34
2018-09-26T20:02:30.335Z,96689.53
2018-09-26T20:04:56.979Z,96680.78
2018-09-26T20:07:23.966Z,96681.64
2018-09-26T20:09:51.646Z,96683.80
2018-09-26T20:12:18.397Z,96680.90
2018-09-26T20:14:45.093Z,96678.34
2018-09-26T20:17:11.771Z,96672.11
2018-09-26T20:19:38.560Z,96681.62
2018-09-26T20:22:05.278Z,96678.69
2018-09-26T20:24:31.890Z,96680.62
2018-09-26T20:26:58.687Z,96680.61
2018-09-26T20:29:25.553Z,96679.20
2018-09-26T20:31:52.421Z,96680.47
2018-09-26T20:34:20.434Z,96672.19
2018-09-26T20:36:45.721Z,96679.77
2018-09-26T20:39:13.994Z,96678.91
2018-09-26T20:41:39.244Z,96680.52
2018-09-26T20:44:06.955Z,96678.37
2018-09-26T20:46:32.585Z,96668.23
2018-09-26T20:49:00.659Z,96671.26
2018-09-26T20:51:28.801Z,96669.61
2018-09-26T20:53:55.538Z,96669.23
2018-09-26T20:56:22.194Z,96667.69
2018-09-26T20:58:48.842Z,96666.04
2018-09-26T21:01:15.583Z,96664.01
2018-09-26T21:03:42.234Z,96673.47
2018-09-26T21:06:08.895Z,96665.74
2018-09-26T21:08:35.551Z,96660.31
2018-09-26T21:11:02.246Z,96660.56
2018-09-26T21:13:28.885Z,96665.74
2018-09-26T21:15:55.605Z,96669.04
2018-09-26T21:18:22.341Z,96662.94
2018-09-26T21:20:50.287Z,96663.70
2018-09-26T21:23:15.742Z,96673.45
2018-09-26T21:25:42.280Z,96675.84
2018-09-26T21:28:09.237Z,96674.55
2018-09-26T21:30:36.228Z,96675.18
2018-09-26T21:33:02.845Z,96673.53
2018-09-26T21:35:29.486Z,96667.19
2018-09-26T21:37:56.210Z,96677.31
2018-09-26T21:40:25.155Z,96680.86
2018-09-26T21:42:50.567Z,96678.46
2018-09-26T21:45:17.303Z,96687.92
2018-09-26T21:47:43.956Z,96688.45
2018-09-26T21:50:10.684Z,96678.80
2018-09-26T21:52:37.298Z,96677.25
2018-09-26T21:55:04.036Z,96678.78
2018-09-26T21:57:30.676Z,96676.52
2018-09-26T21:59:57.413Z,96670.80
2018-09-26T22:02:24.051Z,96673.18
2018-09-26T22:04:50.686Z,96666.44
2018-09-26T22:07:17.337Z,96669.87
2018-09-26T22:09:43.973Z,96670.11
2018-09-26T22:12:10.640Z,96671.20
2018-09-26T22:14:37.313Z,96670.95
2018-09-26T22:17:03.949Z,96669.42
2018-09-26T22:19:30.600Z,96665.63
2018-09-26T22:21:57.247Z,96662.08
2018-09-26T22:24:23.890Z,96662.05
2018-09-26T22:26:50.609Z,96665.08
2018-09-26T22:29:17.224Z,96656.83
2018-09-26T22:31:43.883Z,96665.08
2018-09-26T22:34:10.521Z,96655.67
2018-09-26T22:36:38.570Z,96662.37
2018-09-26T22:39:03.886Z,96663.28
2018-09-26T22:41:30.616Z,96660.74
2018-09-26T22:43:57.268Z,96664.52
2018-09-26T22:46:23.909Z,96659.33
2018-09-26T22:48:50.556Z,96659.81
2018-09-26T22:51:17.216Z,96657.39
2018-09-26T22:53:43.858Z,96664.12
2018-09-26T22:56:10.588Z,96663.34
2018-09-26T22:58:37.331Z,96664.21
2018-09-26T23:01:03.970Z,96663.68
2018-09-26T23:03:30.651Z,96669.91
2018-09-26T23:05:57.342Z,96665.68
2018-09-26T23:08:26.793Z,96658.09
2018-09-26T23:10:53.441Z,96661.63
2018-09-26T23:13:21.998Z,96659.73
2018-09-26T23:15:48.649Z,96658.83
2018-09-26T23:18:15.311Z,96660.45
2018-09-26T23:20:41.956Z,96647.02
2018-09-26T23:23:08.602Z,96642.82
2018-09-26T23:25:38.610Z,96640.48
2018-09-26T23:28:07.504Z,96648.63
2018-09-26T23:30:31.989Z,96648.31
2018-09-26T23:32:58.649Z,96652.96
2018-09-26T23:35:25.333Z,96646.73
2018-09-26T23:37:53.327Z,96664.86
2018-09-26T23:40:18.618Z,96655.50
2018-09-26T23:42:45.268Z,96641.83
2018-09-26T23:45:12.008Z,96637.95
2018-09-26T23:47:38.655Z,96638.95
2018-09-26T23:50:05.338Z,96637.41
2018-09-26T23:52:32.004Z,96634.38
2018-09-26T23:54:58.648Z,96632.19
2018-09-26T23:57:25.324Z,96626.67
2018-09-26T23:59:54.476Z,96623.00
